createdAt,value
2019-05-11T00:00:24.109Z,49.10
2019-05-11T00:02:52.356Z,49.84
2019-05-11T00:05:20.609Z,48.99
2019-05-11T00:07:48.892Z,48.61
2019-05-11T00:10:23.213Z,49.87
2019-05-11T00:12:47.218Z,49.09
2019-05-11T00:15:15.550Z,47.84
2019-05-11T00:17:43.824Z,48.09
2019-05-11T00:20:12.128Z,48.78
2019-05-11T00:22:40.372Z,50.16
2019-05-11T00:25:08.700Z,52.53
2019-05-11T00:27:36.970Z,53.43
2019-05-11T00:30:06.547Z,53.08
2019-05-11T00:32:34.809Z,56.67
2019-05-11T00:35:03.435Z,56.75
2019-05-11T00:37:31.718Z,56.21
2019-05-11T00:40:13.254Z,55.81
2019-05-11T00:42:29.976Z,56.15
2019-05-11T00:44:58.230Z,57.84
2019-05-11T00:47:26.487Z,56.13
2019-05-11T00:49:54.759Z,56.31
2019-05-11T00:52:23.001Z,54.79
2019-05-11T00:54:51.251Z,55.39
2019-05-11T00:57:19.520Z,60.88
2019-05-11T00:59:47.799Z,57.27
2019-05-11T01:02:16.064Z,55.87
2019-05-11T01:04:44.343Z,55.52
2019-05-11T01:07:12.603Z,54.63
2019-05-11T01:09:40.850Z,55.09
2019-05-11T01:12:09.143Z,55.97
2019-05-11T01:14:37.394Z,56.28
2019-05-11T01:17:05.645Z,56.05
2019-05-11T01:19:33.907Z,55.93
2019-05-11T01:22:02.176Z,57.06
2019-05-11T01:24:30.463Z,55.56
2019-05-11T01:26:58.728Z,55.67
2019-05-11T01:29:26.987Z,58.89
2019-05-11T01:31:55.259Z,55.38
2019-05-11T01:34:23.523Z,55.72
2019-05-11T01:36:51.797Z,55.87
2019-05-11T01:39:20.080Z,55.40
2019-05-11T01:41:48.357Z,58.48
2019-05-11T01:44:16.689Z,56.54
2019-05-11T01:46:44.956Z,57.68
2019-05-11T01:49:13.276Z,58.03
2019-05-11T01:51:41.558Z,56.72
2019-05-11T01:54:09.826Z,57.19
2019-05-11T01:56:38.081Z,58.65
2019-05-11T01:59:06.346Z,60.44
2019-05-11T02:01:34.679Z,58.85
2019-05-11T02:04:02.935Z,63.00
2019-05-11T02:06:31.231Z,65.12
2019-05-11T02:08:59.483Z,63.68
2019-05-11T02:11:27.734Z,67.18
2019-05-11T02:13:56.018Z,62.52
2019-05-11T02:16:24.283Z,63.74
2019-05-11T02:18:52.544Z,65.92
2019-05-11T02:21:20.816Z,67.17
2019-05-11T02:23:49.073Z,63.79
2019-05-11T02:26:17.334Z,63.37
2019-05-11T02:28:45.858Z,70.45
2019-05-11T02:31:14.150Z,70.50
2019-05-11T02:33:42.399Z,69.01
2019-05-11T02:36:10.680Z,73.77
2019-05-11T02:38:39.023Z,71.55
2019-05-11T02:41:07.282Z,67.60
2019-05-11T02:43:35.541Z,71.28
2019-05-11T02:46:03.843Z,64.04
2019-05-11T02:48:32.093Z,63.60
2019-05-11T02:51:00.738Z,63.87
2019-05-11T02:53:30.631Z,76.60
2019-05-11T02:55:59.267Z,73.74
2019-05-11T02:58:27.541Z,79.31
2019-05-11T03:00:55.831Z,94.89
2019-05-11T03:03:24.138Z,95.29
2019-05-11T03:05:52.457Z,96.44
2019-05-11T03:08:20.700Z,92.62
2019-05-11T03:10:48.972Z,92.85
2019-05-11T03:13:17.250Z,89.50
2019-05-11T03:15:45.510Z,89.26
2019-05-11T03:18:13.828Z,99.73
2019-05-11T03:20:42.098Z,90.88
2019-05-11T03:23:10.368Z,79.49
2019-05-11T03:25:38.680Z,87.19
2019-05-11T03:28:06.991Z,87.13
2019-05-11T03:30:35.317Z,81.39
2019-05-11T03:33:03.583Z,84.00
2019-05-11T03:35:31.873Z,82.05
2019-05-11T03:38:00.101Z,77.65
2019-05-11T03:40:28.367Z,78.01
2019-05-11T03:42:56.662Z,74.86
2019-05-11T03:45:24.921Z,82.13
2019-05-11T03:47:53.256Z,79.40
2019-05-11T03:50:21.515Z,77.49
2019-05-11T03:52:49.778Z,77.27
2019-05-11T03:55:18.151Z,79.03
2019-05-11T03:57:46.410Z,78.28
2019-05-11T04:00:14.721Z,77.06
2019-05-11T04:02:42.971Z,73.90
2019-05-11T04:05:11.379Z,79.36
2019-05-11T04:07:39.629Z,78.48
2019-05-11T04:10:08.353Z,82.67
2019-05-11T04:12:36.604Z,71.58
2019-05-11T04:15:08.258Z,71.74
2019-05-11T04:17:36.530Z,68.54
2019-05-11T04:20:08.149Z,71.86
2019-05-11T04:22:36.455Z,70.07
2019-05-11T04:25:05.552Z,70.67
2019-05-11T04:27:33.830Z,71.91
2019-05-11T04:30:02.118Z,79.17
2019-05-11T04:32:30.381Z,73.35
2019-05-11T04:34:58.646Z,71.79
2019-05-11T04:37:26.902Z,73.38
2019-05-11T04:39:55.179Z,71.90
2019-05-11T04:42:23.446Z,72.60
2019-05-11T04:44:52.607Z,73.16
2019-05-11T04:47:20.981Z,71.83
2019-05-11T04:49:49.227Z,75.35
2019-05-11T04:52:17.515Z,74.69
2019-05-11T04:54:45.778Z,72.74
2019-05-11T04:57:14.153Z,63.92
2019-05-11T04:59:42.410Z,69.58
2019-05-11T05:02:10.715Z,71.27
2019-05-11T05:04:38.989Z,69.48
2019-05-11T05:07:10.602Z,70.34
2019-05-11T05:09:42.848Z,70.05
2019-05-11T05:12:08.446Z,67.54
2019-05-11T05:14:37.300Z,64.73
2019-05-11T05:17:05.563Z,64.06
2019-05-11T05:19:33.843Z,66.48
2019-05-11T05:22:02.129Z,70.64
2019-05-11T05:24:30.401Z,74.97
2019-05-11T05:26:58.670Z,72.42
2019-05-11T05:29:26.927Z,72.97
2019-05-11T05:31:55.202Z,74.19
2019-05-11T05:34:23.477Z,71.11
2019-05-11T05:36:51.729Z,70.99
2019-05-11T05:39:20.030Z,74.12
2019-05-11T05:41:56.647Z,71.17
2019-05-11T05:44:18.265Z,71.46
2019-05-11T05:46:46.571Z,73.13
2019-05-11T05:49:14.852Z,68.20
2019-05-11T05:51:43.115Z,70.89
2019-05-11T05:54:11.391Z,70.42
2019-05-11T05:56:39.647Z,69.79
2019-05-11T05:59:07.931Z,71.45
2019-05-11T06:01:36.191Z,72.69
2019-05-11T06:04:04.514Z,72.40
2019-05-11T06:06:32.863Z,72.99
2019-05-11T06:09:01.162Z,74.35
2019-05-11T06:11:29.424Z,71.98
2019-05-11T06:13:57.793Z,71.50
2019-05-11T06:16:26.095Z,74.21
2019-05-11T06:18:54.360Z,72.10
2019-05-11T06:21:22.615Z,70.75
2019-05-11T06:23:50.901Z,73.72
2019-05-11T06:26:19.157Z,73.00
2019-05-11T06:28:47.458Z,69.86
2019-05-11T06:31:15.719Z,65.87
2019-05-11T06:33:43.965Z,67.39
2019-05-11T06:36:12.236Z,68.00
2019-05-11T06:38:40.502Z,69.31
2019-05-11T06:41:08.768Z,71.24
2019-05-11T06:43:37.135Z,72.10
2019-05-11T06:46:05.395Z,70.08
2019-05-11T06:48:33.681Z,73.58
2019-05-11T06:51:01.959Z,73.18
2019-05-11T06:53:30.237Z,69.83
2019-05-11T06:55:58.519Z,70.79
2019-05-11T06:58:26.853Z,70.44
2019-05-11T07:00:55.103Z,69.61
2019-05-11T07:03:23.409Z,72.46
2019-05-11T07:05:51.667Z,72.24
2019-05-11T07:08:19.926Z,70.40
2019-05-11T07:10:48.243Z,69.48
2019-05-11T07:13:16.579Z,70.97
2019-05-11T07:15:44.831Z,72.58
2019-05-11T07:18:13.114Z,72.13
2019-05-11T07:20:50.115Z,71.11
2019-05-11T07:23:11.381Z,67.19
2019-05-11T07:25:39.717Z,68.01
2019-05-11T07:28:07.972Z,67.01
2019-05-11T07:30:36.311Z,70.02
2019-05-11T07:33:04.658Z,69.84
2019-05-11T07:35:33.876Z,57.77
2019-05-11T07:38:02.160Z,75.44
2019-05-11T07:40:30.501Z,71.70
2019-05-11T07:42:59.114Z,81.41
2019-05-11T07:45:28.319Z,85.66
2019-05-11T07:47:58.798Z,92.48
2019-05-11T07:50:28.339Z,96.65
2019-05-11T07:52:58.869Z,85.65
2019-05-11T07:55:28.208Z,87.64
2019-05-11T07:57:58.625Z,91.06
2019-05-11T08:00:28.011Z,100.00
2019-05-11T08:02:58.464Z,100.00
2019-05-11T08:05:28.382Z,91.17
2019-05-11T08:07:56.438Z,92.19
2019-05-11T08:10:24.705Z,100.00
2019-05-11T08:12:53.001Z,100.00
2019-05-11T08:15:21.290Z,100.00
2019-05-11T08:17:49.592Z,100.00
2019-05-11T08:20:18.676Z,100.00
2019-05-11T08:22:48.237Z,100.00
2019-05-11T08:25:18.237Z,100.00
2019-05-11T08:27:48.531Z,100.00
2019-05-11T08:30:18.796Z,100.00
2019-05-11T08:32:49.083Z,100.00
2019-05-11T08:35:17.922Z,100.00
2019-05-11T08:37:47.895Z,100.00
2019-05-11T08:40:18.419Z,100.00
2019-05-11T08:42:48.233Z,100.00
2019-05-11T08:45:23.253Z,100.00
2019-05-11T08:47:48.493Z,100.00
2019-05-11T08:50:18.711Z,100.00
2019-05-11T08:52:47.908Z,100.00
2019-05-11T08:55:18.790Z,100.00
2019-05-11T08:57:47.928Z,100.00
2019-05-11T09:00:18.068Z,100.00
2019-05-11T09:02:49.807Z,100.00
2019-05-11T09:05:18.675Z,100.00
2019-05-11T09:07:48.353Z,100.00
2019-05-11T09:10:18.583Z,100.00
2019-05-11T09:12:48.601Z,100.00
2019-05-11T09:15:30.032Z,100.00
2019-05-11T09:17:48.795Z,100.00
2019-05-11T09:20:18.107Z,100.00
2019-05-11T09:22:48.523Z,100.00
2019-05-11T09:25:18.307Z,100.00
2019-05-11T09:27:48.262Z,100.00
2019-05-11T09:30:18.455Z,100.00
2019-05-11T09:32:47.796Z,100.00
2019-05-11T09:35:18.668Z,100.00
2019-05-11T09:37:48.392Z,100.00
2019-05-11T09:40:18.255Z,100.00
2019-05-11T09:42:47.916Z,100.00
2019-05-11T09:45:18.708Z,100.00
2019-05-11T09:47:47.727Z,100.00
2019-05-11T09:50:17.865Z,100.00
2019-05-11T09:52:48.725Z,100.00
2019-05-11T09:55:18.802Z,100.00
2019-05-11T09:57:48.674Z,100.00
2019-05-11T10:00:17.892Z,100.00
2019-05-11T10:02:48.557Z,100.00
2019-05-11T10:05:18.581Z,100.00
2019-05-11T10:07:48.482Z,100.00
2019-05-11T10:10:18.593Z,100.00
2019-05-11T10:12:48.557Z,100.00
2019-05-11T10:15:18.721Z,100.00
2019-05-11T10:17:48.266Z,100.00
2019-05-11T10:20:18.128Z,100.00
2019-05-11T10:22:48.664Z,100.00
2019-05-11T10:25:18.129Z,100.00
2019-05-11T10:27:48.869Z,100.00
2019-05-11T10:30:18.891Z,100.00
2019-05-11T10:32:48.457Z,100.00
2019-05-11T10:35:18.349Z,100.00
2019-05-11T10:37:47.812Z,100.00
2019-05-11T10:40:18.653Z,100.00
2019-05-11T10:42:48.386Z,100.00
2019-05-11T10:45:18.002Z,100.00
2019-05-11T10:47:48.726Z,100.00
2019-05-11T10:50:18.546Z,100.00
2019-05-11T10:52:48.399Z,100.00
2019-05-11T10:55:18.968Z,100.00
2019-05-11T10:57:48.712Z,100.00
2019-05-11T11:00:19.641Z,100.00
2019-05-11T11:02:47.791Z,100.00
2019-05-11T11:05:18.512Z,100.00
2019-05-11T11:07:48.407Z,100.00
2019-05-11T11:10:18.197Z,100.00
2019-05-11T11:12:48.749Z,100.00
2019-05-11T11:15:18.278Z,100.00
2019-05-11T11:17:48.465Z,100.00
2019-05-11T11:20:18.571Z,100.00
2019-05-11T11:22:48.050Z,100.00
2019-05-11T11:25:17.982Z,100.00
2019-05-11T11:27:48.436Z,100.00
2019-05-11T11:30:18.140Z,100.00
2019-05-11T11:32:48.283Z,100.00
2019-05-11T11:35:18.516Z,100.00
2019-05-11T11:37:47.857Z,100.00
2019-05-11T11:40:17.752Z,100.00
2019-05-11T11:42:47.798Z,100.00
2019-05-11T11:45:18.274Z,100.00
2019-05-11T11:47:49.062Z,100.00
2019-05-11T11:50:17.842Z,100.00
2019-05-11T11:52:47.715Z,100.00
2019-05-11T11:55:18.390Z,100.00
2019-05-11T11:57:48.472Z,100.00
2019-05-11T12:00:18.253Z,100.00
2019-05-11T12:02:48.638Z,100.00
2019-05-11T12:05:17.680Z,100.00
2019-05-11T12:07:45.981Z,100.00
2019-05-11T12:10:14.231Z,100.00
2019-05-11T12:12:42.498Z,100.00
2019-05-11T12:15:10.829Z,100.00
2019-05-11T12:17:39.114Z,100.00
2019-05-11T12:20:09.029Z,100.00
2019-05-11T12:22:38.654Z,100.00
2019-05-11T12:25:07.919Z,100.00
2019-05-11T12:27:38.432Z,100.00
2019-05-11T12:30:09.186Z,100.00
2019-05-11T12:32:41.947Z,100.00
2019-05-11T12:35:10.286Z,100.00
2019-05-11T12:37:38.555Z,100.00
2019-05-11T12:40:08.460Z,100.00
2019-05-11T12:42:38.091Z,100.00
2019-05-11T12:45:08.845Z,100.00
2019-05-11T12:47:38.498Z,100.00
2019-05-11T12:50:08.980Z,100.00
2019-05-11T12:52:38.269Z,100.00
2019-05-11T12:55:08.778Z,100.00
2019-05-11T12:57:38.547Z,100.00
2019-05-11T13:00:08.808Z,100.00
2019-05-11T13:02:38.837Z,100.00
2019-05-11T13:05:08.773Z,100.00
2019-05-11T13:07:39.248Z,100.00
2019-05-11T13:10:08.376Z,100.00
2019-05-11T13:12:38.562Z,100.00
2019-05-11T13:15:08.425Z,100.00
2019-05-11T13:17:40.033Z,100.00
2019-05-11T13:20:08.688Z,100.00
2019-05-11T13:22:38.215Z,100.00
2019-05-11T13:25:09.784Z,100.00
2019-05-11T13:27:38.725Z,100.00
2019-05-11T13:30:10.346Z,100.00
2019-05-11T13:32:38.738Z,100.00
2019-05-11T13:35:09.154Z,100.00
2019-05-11T13:37:38.651Z,100.00
2019-05-11T13:40:07.852Z,100.00
2019-05-11T13:42:38.593Z,99.03
2019-05-11T13:45:09.914Z,99.90
2019-05-11T13:47:51.584Z,100.00
2019-05-11T13:50:08.527Z,98.24
2019-05-11T13:52:38.577Z,97.27
2019-05-11T13:55:07.844Z,99.87
2019-05-11T13:57:37.968Z,99.45
2019-05-11T14:00:08.405Z,97.34
2019-05-11T14:02:37.914Z,96.39
2019-05-11T14:05:09.543Z,98.59
2019-05-11T14:07:38.289Z,97.55
2019-05-11T14:10:08.143Z,98.06
2019-05-11T14:12:38.547Z,100.00
2019-05-11T14:15:08.500Z,97.31
2019-05-11T14:17:37.997Z,95.92
2019-05-11T14:20:09.054Z,97.32
2019-05-11T14:22:38.661Z,95.54
2019-05-11T14:25:08.115Z,99.02
2019-05-11T14:27:38.349Z,99.10
2019-05-11T14:30:08.579Z,98.78
2019-05-11T14:32:38.814Z,93.68
2019-05-11T14:35:11.878Z,93.38
2019-05-11T14:37:38.060Z,93.14
2019-05-11T14:40:08.785Z,91.74
2019-05-11T14:42:38.242Z,94.38
2019-05-11T14:45:08.596Z,94.33
2019-05-11T14:47:38.762Z,96.37
2019-05-11T14:50:08.803Z,95.50
2019-05-11T14:52:39.218Z,94.44
2019-05-11T14:55:09.663Z,96.12
2019-05-11T14:57:39.609Z,95.76
2019-05-11T15:00:08.733Z,97.18
2019-05-11T15:02:45.605Z,98.32
2019-05-11T15:05:17.983Z,98.29
2019-05-11T15:07:47.946Z,95.87
2019-05-11T15:10:18.791Z,94.79
2019-05-11T15:12:48.870Z,96.43
2019-05-11T15:15:18.652Z,93.23
2019-05-11T15:17:49.157Z,95.46
2019-05-11T15:20:18.780Z,96.23
2019-05-11T15:22:48.890Z,94.20
2019-05-11T15:25:19.447Z,99.34
2019-05-11T15:27:48.749Z,98.70
2019-05-11T15:30:18.321Z,99.65
2019-05-11T15:32:48.151Z,99.15
2019-05-11T15:35:18.587Z,97.65
2019-05-11T15:37:47.924Z,98.59
2019-05-11T15:40:18.739Z,98.00
2019-05-11T15:42:48.695Z,99.96
2019-05-11T15:45:19.069Z,99.45
2019-05-11T15:47:48.731Z,98.69
2019-05-11T15:50:19.102Z,95.74
2019-05-11T15:52:48.813Z,97.74
2019-05-11T15:55:22.648Z,97.67
2019-05-11T15:57:53.908Z,96.31
2019-05-11T16:00:23.877Z,96.58
2019-05-11T16:02:52.218Z,96.80
2019-05-11T16:05:20.609Z,100.00
2019-05-11T16:07:49.433Z,97.63
2019-05-11T16:10:19.541Z,97.10
2019-05-11T16:12:49.462Z,97.57
2019-05-11T16:15:19.163Z,95.72
2019-05-11T16:17:49.573Z,100.00
2019-05-11T16:20:21.121Z,100.00
2019-05-11T16:22:51.058Z,100.00
2019-05-11T16:25:20.158Z,100.00
2019-05-11T16:27:48.711Z,100.00
2019-05-11T16:30:21.622Z,100.00
2019-05-11T16:32:49.980Z,100.00
2019-05-11T16:35:23.260Z,100.00
2019-05-11T16:37:51.550Z,100.00
2019-05-11T16:40:20.709Z,100.00
2019-05-11T16:42:49.608Z,99.22
2019-05-11T16:45:18.932Z,98.49
2019-05-11T16:47:48.447Z,99.97
2019-05-11T16:50:18.523Z,99.50
2019-05-11T16:52:48.338Z,98.21
2019-05-11T16:55:19.193Z,98.70
2019-05-11T16:57:48.354Z,98.57
2019-05-11T17:00:19.177Z,97.71
2019-05-11T17:02:49.046Z,97.22
2019-05-11T17:05:26.831Z,97.08
2019-05-11T17:07:50.818Z,95.91
2019-05-11T17:10:22.299Z,94.82
2019-05-11T17:12:50.570Z,97.35
2019-05-11T17:15:19.229Z,99.58
2019-05-11T17:17:51.986Z,99.22
2019-05-11T17:20:23.463Z,98.46
2019-05-11T17:22:53.849Z,96.24
2019-05-11T17:25:22.356Z,99.13
2019-05-11T17:27:55.240Z,100.00
2019-05-11T17:30:23.519Z,100.00
2019-05-11T17:32:51.867Z,100.00
2019-05-11T17:35:20.218Z,98.32
2019-05-11T17:37:48.922Z,99.28
2019-05-11T17:40:22.762Z,100.00
2019-05-11T17:42:48.039Z,100.00
2019-05-11T17:45:19.241Z,100.00
2019-05-11T17:47:47.540Z,100.00
2019-05-11T17:50:15.895Z,100.00
2019-05-11T17:52:44.163Z,100.00
2019-05-11T17:55:12.503Z,100.00
2019-05-11T17:57:41.259Z,100.00
2019-05-11T18:00:10.966Z,100.00
2019-05-11T18:02:39.306Z,100.00
2019-05-11T18:05:08.987Z,100.00
2019-05-11T18:07:38.500Z,100.00
2019-05-11T18:10:08.173Z,100.00
2019-05-11T18:12:38.852Z,100.00
2019-05-11T18:15:08.492Z,100.00
2019-05-11T18:17:37.540Z,100.00
2019-05-11T18:20:17.260Z,100.00
2019-05-11T18:22:39.033Z,100.00
2019-05-11T18:25:08.622Z,100.00
2019-05-11T18:27:38.670Z,100.00
2019-05-11T18:30:08.842Z,100.00
2019-05-11T18:32:39.540Z,100.00
2019-05-11T18:35:08.391Z,100.00
2019-05-11T18:37:38.890Z,100.00
2019-05-11T18:40:07.489Z,100.00
2019-05-11T18:42:38.092Z,100.00
2019-05-11T18:45:09.237Z,100.00
2019-05-11T18:47:38.183Z,100.00
2019-05-11T18:50:07.909Z,100.00
2019-05-11T18:52:36.253Z,100.00
2019-05-11T18:55:08.177Z,99.33
2019-05-11T18:57:35.663Z,100.00
2019-05-11T19:00:08.187Z,100.00
2019-05-11T19:02:38.419Z,99.63
2019-05-11T19:05:06.865Z,100.00
2019-05-11T19:07:35.136Z,99.41
2019-05-11T19:10:04.165Z,100.00
2019-05-11T19:12:34.112Z,100.00
2019-05-11T19:15:02.357Z,100.00
2019-05-11T19:17:30.611Z,99.59
2019-05-11T19:19:58.905Z,100.00
2019-05-11T19:22:28.914Z,99.04
2019-05-11T19:24:58.215Z,99.81
2019-05-11T19:27:28.675Z,97.84
2019-05-11T19:29:58.264Z,97.38
2019-05-11T19:32:28.213Z,98.20
2019-05-11T19:34:58.107Z,98.57
2019-05-11T19:37:27.870Z,100.00
2019-05-11T19:39:57.982Z,98.89
2019-05-11T19:42:28.444Z,99.57
2019-05-11T19:44:56.475Z,100.00
2019-05-11T19:47:24.753Z,97.84
2019-05-11T19:49:53.016Z,98.30
2019-05-11T19:52:21.310Z,98.73
2019-05-11T19:54:49.775Z,99.64
2019-05-11T19:57:18.143Z,97.73
2019-05-11T19:59:48.087Z,99.33
2019-05-11T20:02:17.872Z,99.25
2019-05-11T20:04:48.088Z,99.98
2019-05-11T20:07:18.356Z,99.51
2019-05-11T20:09:46.312Z,98.19
2019-05-11T20:12:14.788Z,100.00
2019-05-11T20:14:43.140Z,100.00
2019-05-11T20:17:11.401Z,100.00
2019-05-11T20:19:39.686Z,100.00
2019-05-11T20:22:07.959Z,100.00
2019-05-11T20:24:36.224Z,100.00
2019-05-11T20:27:04.521Z,100.00
2019-05-11T20:29:32.780Z,100.00
2019-05-11T20:32:01.077Z,100.00
2019-05-11T20:34:29.840Z,100.00
2019-05-11T20:36:58.774Z,100.00
2019-05-11T20:39:28.726Z,100.00
2019-05-11T20:41:58.148Z,100.00
2019-05-11T20:44:28.644Z,100.00
2019-05-11T20:46:58.056Z,100.00
2019-05-11T20:49:28.200Z,100.00
2019-05-11T20:51:58.032Z,100.00
2019-05-11T20:54:28.102Z,100.00
2019-05-11T20:56:58.471Z,100.00
2019-05-11T20:59:28.993Z,100.00
2019-05-11T21:01:58.723Z,100.00
2019-05-11T21:04:28.214Z,100.00
2019-05-11T21:06:57.994Z,100.00
2019-05-11T21:09:28.768Z,100.00
2019-05-11T21:11:58.624Z,100.00
2019-05-11T21:14:28.635Z,100.00
2019-05-11T21:16:58.661Z,100.00
2019-05-11T21:19:28.287Z,100.00
2019-05-11T21:21:58.720Z,100.00
2019-05-11T21:24:28.129Z,100.00
2019-05-11T21:26:58.431Z,100.00
2019-05-11T21:29:28.306Z,100.00
2019-05-11T21:31:58.710Z,100.00
2019-05-11T21:34:27.953Z,100.00
2019-05-11T21:36:56.397Z,100.00
2019-05-11T21:39:24.649Z,100.00
2019-05-11T21:44:20.362Z,100.00
2019-05-11T21:46:48.647Z,100.00
2019-05-11T21:49:18.423Z,100.00
2019-05-11T21:51:49.382Z,100.00
2019-05-11T21:54:16.975Z,100.00
2019-05-11T21:56:45.246Z,100.00
2019-05-11T21:59:13.523Z,100.00
2019-05-11T22:01:41.873Z,100.00
2019-05-11T22:04:11.333Z,100.00
2019-05-11T22:06:39.724Z,100.00
2019-05-11T22:09:08.942Z,100.00
2019-05-11T22:11:38.054Z,100.00
2019-05-11T22:14:08.284Z,100.00
2019-05-11T22:16:38.768Z,100.00
2019-05-11T22:19:08.689Z,100.00
2019-05-11T22:21:36.626Z,100.00
2019-05-11T22:24:04.923Z,100.00
2019-05-11T22:26:33.198Z,100.00
2019-05-11T22:29:01.509Z,100.00
2019-05-11T22:31:29.812Z,100.00
2019-05-11T22:33:58.411Z,100.00
2019-05-11T22:36:28.226Z,100.00
2019-05-11T22:38:58.739Z,100.00
2019-05-11T22:41:26.751Z,100.00
2019-05-11T22:43:55.023Z,100.00
2019-05-11T22:46:23.468Z,100.00
2019-05-11T22:48:51.756Z,100.00
2019-05-11T22:51:20.039Z,100.00
2019-05-11T22:53:50.543Z,100.00
2019-05-11T22:56:20.083Z,100.00
2019-05-11T22:58:49.922Z,100.00
2019-05-11T23:01:18.295Z,100.00
2019-05-11T23:03:47.559Z,100.00
2019-05-11T23:06:17.997Z,100.00
2019-05-11T23:08:48.318Z,100.00
2019-05-11T23:11:17.940Z,100.00
2019-05-11T23:13:47.849Z,100.00
2019-05-11T23:16:17.950Z,100.00
2019-05-11T23:18:48.064Z,100.00
2019-05-11T23:21:16.033Z,100.00
2019-05-11T23:23:44.316Z,100.00
2019-05-11T23:26:12.599Z,100.00
2019-05-11T23:28:40.895Z,100.00
2019-05-11T23:31:09.171Z,100.00
2019-05-11T23:33:38.471Z,100.00
2019-05-11T23:36:07.827Z,100.00
2019-05-11T23:38:38.522Z,100.00
2019-05-11T23:41:08.204Z,100.00
2019-05-11T23:43:38.373Z,100.00
2019-05-11T23:46:08.223Z,100.00
2019-05-11T23:48:38.420Z,100.00
2019-05-11T23:51:08.712Z,100.00
2019-05-11T23:53:38.609Z,100.00
2019-05-11T23:56:06.429Z,100.00
2019-05-11T23:58:34.716Z,100.00
